createdAt,value
2019-03-18T00:00:13.331Z,51.70
2019-03-18T00:02:41.711Z,51.64
2019-03-18T00:05:10.165Z,51.64
2019-03-18T00:07:38.676Z,51.61
2019-03-18T00:10:08.402Z,51.98
2019-03-18T00:12:36.789Z,51.98
2019-03-18T00:15:09.704Z,51.60
2019-03-18T00:17:38.666Z,51.62
2019-03-18T00:20:08.904Z,51.67
2019-03-18T00:22:37.279Z,51.53
2019-03-18T00:25:08.136Z,51.52
2019-03-18T00:27:36.521Z,51.49
2019-03-18T00:30:11.005Z,51.44
2019-03-18T00:32:39.398Z,51.45
2019-03-18T00:35:08.876Z,51.30
2019-03-18T00:37:37.261Z,51.37
2019-03-18T00:40:08.905Z,51.28
2019-03-18T00:42:37.276Z,51.26
2019-03-18T00:45:14.610Z,51.30
2019-03-18T00:47:37.410Z,51.36
2019-03-18T00:50:15.988Z,51.24
2019-03-18T00:52:44.905Z,51.31
2019-03-18T00:55:13.416Z,51.31
2019-03-18T00:57:41.793Z,51.20
2019-03-18T01:00:17.487Z,51.19
2019-03-18T01:02:45.862Z,51.19
2019-03-18T01:05:14.510Z,51.22
2019-03-18T01:07:42.895Z,51.12
2019-03-18T01:10:13.673Z,51.12
2019-03-18T01:12:42.044Z,51.17
2019-03-18T01:15:11.263Z,51.04
2019-03-18T01:17:39.650Z,51.04
2019-03-18T01:20:10.716Z,51.07
2019-03-18T01:22:39.098Z,50.96
2019-03-18T01:25:09.023Z,51.03
2019-03-18T01:27:37.387Z,50.96
2019-03-18T01:30:10.750Z,50.83
2019-03-18T01:32:39.173Z,50.83
2019-03-18T01:35:09.867Z,50.93
2019-03-18T01:37:39.180Z,50.93
2019-03-18T01:40:09.800Z,50.89
2019-03-18T01:42:39.228Z,50.82
2019-03-18T01:45:08.335Z,50.74
2019-03-18T01:47:36.797Z,50.76
2019-03-18T01:50:08.622Z,50.70
2019-03-18T01:52:37.005Z,50.70
2019-03-18T01:55:06.731Z,50.68
2019-03-18T01:57:35.112Z,50.72
2019-03-18T02:00:04.568Z,50.60
2019-03-18T02:02:32.954Z,50.59
2019-03-18T02:05:01.337Z,50.57
2019-03-18T02:07:29.723Z,50.55
2019-03-18T02:09:58.081Z,50.54
2019-03-18T02:12:26.464Z,50.48
2019-03-18T02:14:54.835Z,50.51
2019-03-18T02:17:23.209Z,50.54
2019-03-18T02:19:51.585Z,50.42
2019-03-18T02:22:19.960Z,50.38
2019-03-18T02:24:48.324Z,50.37
2019-03-18T02:27:16.708Z,50.37
2019-03-18T02:29:45.079Z,50.44
2019-03-18T02:32:13.463Z,50.54
2019-03-18T02:34:41.817Z,50.51
2019-03-18T02:37:10.189Z,50.56
2019-03-18T02:39:39.607Z,50.70
2019-03-18T02:42:07.992Z,50.69
2019-03-18T02:44:36.361Z,50.87
2019-03-18T02:47:04.741Z,50.75
2019-03-18T02:49:33.103Z,50.79
2019-03-18T02:52:01.461Z,50.80
2019-03-18T02:54:29.927Z,50.83
2019-03-18T02:56:58.300Z,50.73
2019-03-18T02:59:26.672Z,50.69
2019-03-18T03:01:55.947Z,50.64
2019-03-18T03:04:24.357Z,50.58
2019-03-18T03:06:52.716Z,50.50
2019-03-18T03:09:21.117Z,50.52
2019-03-18T03:11:49.460Z,50.48
2019-03-18T03:14:17.841Z,50.50
2019-03-18T03:16:46.275Z,50.46
2019-03-18T03:19:14.648Z,50.40
2019-03-18T03:21:43.030Z,50.44
2019-03-18T03:24:11.393Z,50.40
2019-03-18T03:26:40.036Z,50.43
2019-03-18T03:29:08.415Z,50.30
2019-03-18T03:31:36.780Z,50.32
2019-03-18T03:34:05.180Z,50.31
2019-03-18T03:36:33.531Z,50.27
2019-03-18T03:39:01.912Z,50.24
2019-03-18T03:41:30.607Z,50.23
2019-03-18T03:43:58.982Z,50.29
2019-03-18T03:46:42.300Z,50.18
2019-03-18T03:48:57.455Z,50.22
2019-03-18T03:51:25.814Z,50.12
2019-03-18T03:53:54.255Z,50.09
2019-03-18T03:56:22.798Z,50.16
2019-03-18T03:58:51.301Z,50.16
2019-03-18T04:01:19.740Z,50.19
2019-03-18T04:03:48.113Z,50.09
2019-03-18T04:06:16.502Z,50.08
2019-03-18T04:08:45.301Z,50.09
2019-03-18T04:11:15.402Z,50.08
2019-03-18T04:13:43.760Z,50.06
2019-03-18T04:16:12.136Z,50.04
2019-03-18T04:18:40.502Z,50.06
2019-03-18T04:21:09.038Z,50.04
2019-03-18T04:23:37.421Z,49.97
2019-03-18T04:26:06.149Z,49.98
2019-03-18T04:28:34.520Z,50.04
2019-03-18T04:31:02.900Z,49.98
2019-03-18T04:33:31.267Z,50.01
2019-03-18T04:35:59.634Z,49.96
2019-03-18T04:38:27.998Z,49.99
2019-03-18T04:40:56.361Z,49.97
2019-03-18T04:43:24.732Z,49.98
2019-03-18T04:45:53.097Z,49.85
2019-03-18T04:48:21.479Z,49.92
2019-03-18T04:50:49.863Z,49.91
2019-03-18T04:53:18.233Z,49.92
2019-03-18T04:55:46.829Z,49.82
2019-03-18T04:58:15.205Z,49.73
2019-03-18T05:00:43.584Z,49.82
2019-03-18T05:03:13.003Z,49.79
2019-03-18T05:05:41.368Z,49.83
2019-03-18T05:08:09.740Z,49.78
2019-03-18T05:10:38.115Z,49.74
2019-03-18T05:13:06.488Z,49.74
2019-03-18T05:15:34.861Z,49.69
2019-03-18T05:18:03.234Z,49.69
2019-03-18T05:20:31.603Z,49.69
2019-03-18T05:22:59.982Z,49.69
2019-03-18T05:25:28.340Z,49.67
2019-03-18T05:27:56.719Z,49.63
2019-03-18T05:30:25.088Z,49.74
2019-03-18T05:32:53.467Z,49.76
2019-03-18T05:35:21.837Z,49.84
2019-03-18T05:37:50.215Z,49.85
2019-03-18T05:40:18.581Z,50.15
2019-03-18T05:42:46.958Z,49.97
2019-03-18T05:45:15.335Z,49.66
2019-03-18T05:47:43.703Z,49.95
2019-03-18T05:50:12.614Z,50.00
2019-03-18T05:52:41.341Z,50.21
2019-03-18T05:55:10.349Z,50.24
2019-03-18T05:57:38.735Z,50.33
2019-03-18T06:00:12.158Z,50.41
2019-03-18T06:02:41.471Z,50.43
2019-03-18T06:05:10.095Z,50.50
2019-03-18T06:07:38.456Z,50.50
2019-03-18T06:10:09.908Z,50.52
2019-03-18T06:12:38.275Z,50.49
2019-03-18T06:15:09.097Z,50.33
2019-03-18T06:17:37.467Z,50.29
2019-03-18T06:20:11.611Z,50.10
2019-03-18T06:22:40.050Z,50.10
2019-03-18T06:25:09.266Z,50.07
2019-03-18T06:27:37.628Z,50.21
2019-03-18T06:30:16.634Z,50.21
2019-03-18T06:32:44.989Z,50.20
2019-03-18T06:35:13.370Z,50.11
2019-03-18T06:37:41.746Z,50.32
2019-03-18T06:40:14.242Z,50.41
2019-03-18T06:42:42.614Z,50.41
2019-03-18T06:45:11.928Z,50.44
2019-03-18T06:47:40.289Z,50.45
2019-03-18T06:50:10.308Z,50.50
2019-03-18T06:52:38.677Z,50.55
2019-03-18T06:55:07.290Z,50.58
2019-03-18T06:57:35.675Z,50.54
2019-03-18T07:00:07.030Z,50.37
2019-03-18T07:02:35.448Z,50.44
2019-03-18T07:05:04.659Z,50.52
2019-03-18T07:07:33.084Z,50.56
2019-03-18T07:10:01.461Z,50.54
2019-03-18T07:12:29.822Z,50.63
2019-03-18T07:14:58.196Z,50.55
2019-03-18T07:17:26.558Z,50.55
2019-03-18T07:19:54.928Z,50.63
2019-03-18T07:22:23.362Z,50.61
2019-03-18T07:24:51.676Z,50.70
2019-03-18T07:27:20.040Z,50.63
2019-03-18T07:29:48.431Z,50.66
2019-03-18T07:32:16.785Z,50.66
2019-03-18T07:34:45.270Z,50.73
2019-03-18T07:37:13.634Z,50.77
2019-03-18T07:39:42.006Z,50.73
2019-03-18T07:42:11.363Z,50.67
2019-03-18T07:44:39.733Z,50.72
2019-03-18T07:47:08.102Z,50.65
2019-03-18T07:49:36.473Z,50.66
2019-03-18T07:52:04.852Z,50.61
2019-03-18T07:54:33.385Z,50.62
2019-03-18T07:57:01.771Z,50.60
2019-03-18T07:59:30.141Z,50.58
2019-03-18T08:01:58.514Z,50.62
2019-03-18T08:04:36.905Z,50.35
2019-03-18T08:06:56.977Z,50.44
2019-03-18T08:09:25.345Z,50.43
2019-03-18T08:11:53.720Z,50.46
2019-03-18T08:14:22.081Z,50.49
2019-03-18T08:16:50.459Z,50.49
2019-03-18T08:19:18.815Z,50.44
2019-03-18T08:21:47.222Z,50.47
2019-03-18T08:24:15.582Z,50.43
2019-03-18T08:26:43.965Z,50.43
2019-03-18T08:29:12.335Z,50.45
2019-03-18T08:31:40.710Z,50.37
2019-03-18T08:34:09.078Z,50.41
2019-03-18T08:36:37.479Z,50.37
2019-03-18T08:39:07.185Z,50.37
2019-03-18T08:41:35.565Z,50.18
2019-03-18T08:44:03.999Z,50.42
2019-03-18T08:46:32.373Z,50.00
2019-03-18T08:49:00.733Z,49.88
2019-03-18T08:51:29.105Z,49.48
2019-03-18T08:53:57.471Z,48.53
2019-03-18T08:56:25.841Z,48.46
2019-03-18T08:58:54.211Z,48.57
2019-03-18T09:01:22.584Z,48.78
2019-03-18T09:03:50.956Z,48.82
2019-03-18T09:06:19.337Z,48.88
2019-03-18T09:08:47.700Z,48.93
2019-03-18T09:11:16.086Z,48.95
2019-03-18T09:13:44.462Z,48.95
2019-03-18T09:16:12.851Z,49.04
2019-03-18T09:18:41.216Z,49.07
2019-03-18T09:21:09.583Z,49.11
2019-03-18T09:23:37.959Z,49.12
2019-03-18T09:26:06.318Z,49.12
2019-03-18T09:28:34.692Z,49.19
2019-03-18T09:31:03.060Z,49.25
2019-03-18T09:33:31.432Z,49.32
2019-03-18T09:35:59.811Z,49.27
2019-03-18T09:38:28.201Z,49.26
2019-03-18T09:40:56.570Z,49.22
2019-03-18T09:43:24.935Z,49.18
2019-03-18T09:45:54.546Z,49.24
2019-03-18T09:48:23.157Z,49.26
2019-03-18T09:50:51.547Z,49.21
2019-03-18T09:53:19.923Z,48.88
2019-03-18T09:55:48.284Z,48.39
2019-03-18T09:58:16.659Z,48.34
2019-03-18T10:00:45.022Z,48.32
2019-03-18T10:03:13.396Z,48.60
2019-03-18T10:05:43.970Z,48.36
2019-03-18T10:08:11.865Z,47.67
2019-03-18T10:10:40.229Z,47.21
2019-03-18T10:13:08.609Z,46.65
2019-03-18T10:15:36.966Z,46.59
2019-03-18T10:18:05.340Z,46.73
2019-03-18T10:20:33.710Z,47.12
2019-03-18T10:23:03.138Z,47.25
2019-03-18T10:25:31.537Z,47.29
2019-03-18T10:27:59.917Z,47.25
2019-03-18T10:30:28.414Z,46.91
2019-03-18T10:32:56.793Z,46.90
2019-03-18T10:35:25.160Z,46.85
2019-03-18T10:37:53.536Z,46.24
2019-03-18T10:40:21.915Z,45.59
2019-03-18T10:42:50.275Z,44.09
2019-03-18T10:45:18.709Z,43.35
2019-03-18T10:47:47.258Z,43.96
2019-03-18T10:50:16.863Z,44.59
2019-03-18T10:52:45.258Z,43.05
2019-03-18T10:55:13.869Z,42.41
2019-03-18T10:57:42.301Z,42.68
2019-03-18T11:00:18.388Z,43.62
2019-03-18T11:02:46.816Z,44.26
2019-03-18T11:05:15.378Z,43.78
2019-03-18T11:07:43.885Z,42.98
2019-03-18T11:10:16.509Z,43.85
2019-03-18T11:12:44.883Z,44.56
2019-03-18T11:15:15.541Z,45.34
2019-03-18T11:17:43.907Z,45.67
2019-03-18T11:20:14.298Z,46.02
2019-03-18T11:22:42.655Z,46.29
2019-03-18T11:25:12.165Z,46.38
2019-03-18T11:27:40.521Z,46.30
2019-03-18T11:30:11.737Z,46.20
2019-03-18T11:32:40.098Z,46.35
2019-03-18T11:35:08.640Z,46.61
2019-03-18T11:37:37.000Z,47.02
2019-03-18T11:40:21.648Z,47.16
2019-03-18T11:42:50.435Z,47.33
2019-03-18T11:45:18.928Z,47.49
2019-03-18T11:47:47.288Z,47.47
2019-03-18T11:50:19.698Z,47.44
2019-03-18T11:52:48.058Z,47.75
2019-03-18T11:55:17.879Z,47.59
2019-03-18T11:57:46.276Z,47.85
2019-03-18T12:00:20.349Z,47.73
2019-03-18T12:02:48.699Z,47.75
2019-03-18T12:05:22.014Z,47.45
2019-03-18T12:07:50.375Z,47.37
2019-03-18T12:10:20.735Z,47.46
2019-03-18T12:12:49.163Z,47.55
2019-03-18T12:15:27.471Z,47.69
2019-03-18T12:17:55.832Z,47.94
2019-03-18T12:20:25.622Z,48.08
2019-03-18T12:22:55.719Z,48.08
2019-03-18T12:25:24.135Z,48.12
2019-03-18T12:27:52.500Z,48.08
2019-03-18T12:30:21.615Z,48.16
2019-03-18T12:32:50.046Z,48.03
2019-03-18T12:35:18.536Z,48.01
2019-03-18T12:37:46.965Z,47.98
2019-03-18T12:40:16.094Z,48.11
2019-03-18T12:42:44.785Z,48.11
2019-03-18T12:45:18.135Z,48.12
2019-03-18T12:47:46.651Z,48.30
2019-03-18T12:50:17.136Z,48.18
2019-03-18T12:52:45.609Z,48.22
2019-03-18T12:55:14.414Z,48.59
2019-03-18T12:57:42.924Z,48.41
2019-03-18T13:00:19.626Z,48.44
2019-03-18T13:02:48.229Z,48.52
2019-03-18T13:05:16.665Z,48.51
2019-03-18T13:07:45.102Z,48.57
2019-03-18T13:10:16.064Z,48.53
2019-03-18T13:12:44.493Z,48.61
2019-03-18T13:15:15.909Z,48.50
2019-03-18T13:17:44.349Z,48.67
2019-03-18T13:20:15.189Z,48.50
2019-03-18T13:22:43.573Z,48.53
2019-03-18T13:25:12.768Z,48.64
2019-03-18T13:27:41.483Z,48.49
2019-03-18T13:30:21.030Z,48.60
2019-03-18T13:32:49.487Z,48.55
2019-03-18T13:35:17.858Z,48.76
2019-03-18T13:37:46.292Z,48.40
2019-03-18T13:40:18.621Z,48.16
2019-03-18T13:42:47.032Z,47.91
2019-03-18T13:45:19.973Z,47.94
2019-03-18T13:47:48.615Z,48.18
2019-03-18T13:50:19.174Z,48.30
2019-03-18T13:52:47.527Z,48.30
2019-03-18T13:55:15.971Z,48.42
2019-03-18T13:57:44.345Z,48.30
2019-03-18T14:00:21.340Z,48.15
2019-03-18T14:02:49.880Z,48.07
2019-03-18T14:05:18.246Z,47.83
2019-03-18T14:07:58.914Z,47.79
2019-03-18T14:10:19.770Z,47.93
2019-03-18T14:12:48.142Z,48.01
2019-03-18T14:15:22.132Z,48.14
2019-03-18T14:17:50.672Z,48.24
2019-03-18T14:20:29.494Z,48.17
2019-03-18T14:22:57.870Z,48.16
2019-03-18T14:25:26.233Z,48.11
2019-03-18T14:27:54.607Z,48.14
2019-03-18T14:30:23.526Z,48.15
2019-03-18T14:32:51.901Z,48.13
2019-03-18T14:35:21.617Z,48.03
2019-03-18T14:37:50.393Z,47.88
2019-03-18T14:40:20.130Z,47.94
2019-03-18T14:42:48.470Z,47.96
2019-03-18T14:45:20.474Z,47.87
2019-03-18T14:47:48.851Z,47.90
2019-03-18T14:50:18.349Z,47.99
2019-03-18T14:52:46.727Z,48.04
2019-03-18T14:55:16.128Z,48.00
2019-03-18T14:57:44.507Z,47.89
2019-03-18T15:00:20.981Z,47.77
2019-03-18T15:02:49.357Z,47.68
2019-03-18T15:05:17.872Z,47.84
2019-03-18T15:07:46.302Z,48.12
2019-03-18T15:10:16.976Z,48.38
2019-03-18T15:12:45.353Z,48.39
2019-03-18T15:15:15.458Z,48.45
2019-03-18T15:17:43.865Z,48.71
2019-03-18T15:20:15.966Z,48.84
2019-03-18T15:22:44.328Z,49.06
2019-03-18T15:25:15.280Z,49.07
2019-03-18T15:27:43.654Z,49.22
2019-03-18T15:30:17.575Z,49.45
2019-03-18T15:32:46.006Z,49.54
2019-03-18T15:35:15.221Z,49.78
2019-03-18T15:37:43.589Z,49.91
2019-03-18T15:40:14.601Z,50.12
2019-03-18T15:42:43.046Z,50.52
2019-03-18T15:45:13.969Z,49.95
2019-03-18T15:47:42.406Z,49.85
2019-03-18T15:50:13.829Z,49.62
2019-03-18T15:52:42.257Z,49.69
2019-03-18T15:55:10.708Z,49.70
2019-03-18T15:57:39.090Z,49.69
2019-03-18T16:00:15.781Z,49.66
2019-03-18T16:02:44.307Z,49.76
2019-03-18T16:05:12.827Z,49.62
2019-03-18T16:07:41.195Z,49.55
2019-03-18T16:10:12.013Z,49.51
2019-03-18T16:12:40.465Z,49.41
2019-03-18T16:15:11.196Z,49.16
2019-03-18T16:17:41.572Z,48.88
2019-03-18T16:20:14.792Z,48.81
2019-03-18T16:22:43.221Z,48.90
2019-03-18T16:25:12.664Z,48.99
2019-03-18T16:27:41.028Z,48.94
2019-03-18T16:30:14.585Z,49.25
2019-03-18T16:32:43.041Z,49.73
2019-03-18T16:35:15.930Z,49.95
2019-03-18T16:37:43.774Z,49.95
2019-03-18T16:40:14.444Z,50.19
2019-03-18T16:42:43.152Z,50.45
2019-03-18T16:45:15.848Z,50.87
2019-03-18T16:47:44.216Z,51.12
2019-03-18T16:50:15.629Z,51.54
2019-03-18T16:52:44.216Z,52.09
2019-03-18T16:55:12.822Z,52.14
2019-03-18T16:57:41.177Z,52.87
2019-03-18T17:00:15.394Z,53.30
2019-03-18T17:02:44.017Z,53.26
2019-03-18T17:05:12.384Z,53.34
2019-03-18T17:07:40.848Z,53.20
2019-03-18T17:10:13.692Z,52.95
2019-03-18T17:12:42.193Z,52.89
2019-03-18T17:15:14.598Z,52.77
2019-03-18T17:17:43.047Z,52.72
2019-03-18T17:20:12.871Z,52.55
2019-03-18T17:22:48.974Z,52.45
2019-03-18T17:25:28.537Z,52.55
2019-03-18T17:27:56.995Z,52.45
2019-03-18T17:30:26.816Z,52.65
2019-03-18T17:32:55.621Z,52.29
2019-03-18T17:35:24.279Z,52.30
2019-03-18T17:37:52.719Z,52.26
2019-03-18T17:40:22.115Z,52.11
2019-03-18T17:42:50.550Z,51.98
2019-03-18T17:45:19.721Z,52.00
2019-03-18T17:47:48.094Z,51.95
2019-03-18T17:50:21.302Z,51.94
2019-03-18T17:53:01.817Z,51.97
2019-03-18T17:55:19.910Z,51.70
2019-03-18T17:57:48.629Z,51.38
2019-03-18T18:00:37.474Z,51.36
2019-03-18T18:03:06.142Z,51.45
2019-03-18T18:05:34.506Z,51.80
2019-03-18T18:08:02.880Z,51.68
2019-03-18T18:10:31.249Z,51.75
2019-03-18T18:12:59.621Z,51.90
2019-03-18T18:15:27.992Z,51.73
2019-03-18T18:17:56.370Z,51.47
2019-03-18T18:20:24.729Z,52.14
2019-03-18T18:22:53.122Z,52.19
2019-03-18T18:25:21.595Z,52.42
2019-03-18T18:27:50.022Z,52.25
2019-03-18T18:30:19.038Z,51.75
2019-03-18T18:32:47.467Z,51.62
2019-03-18T18:35:15.826Z,51.87
2019-03-18T18:37:44.194Z,51.82
2019-03-18T18:40:29.079Z,51.73
2019-03-18T18:42:57.619Z,51.77
2019-03-18T18:45:26.054Z,51.91
2019-03-18T18:47:54.421Z,51.36
2019-03-18T18:50:22.860Z,51.42
2019-03-18T18:52:51.225Z,51.99
2019-03-18T18:55:19.682Z,52.10
2019-03-18T18:57:48.060Z,51.56
2019-03-18T19:00:20.491Z,51.49
2019-03-18T19:02:48.952Z,51.25
2019-03-18T19:05:17.848Z,51.24
2019-03-18T19:07:46.219Z,51.81
2019-03-18T19:10:17.706Z,51.38
2019-03-18T19:12:46.086Z,51.77
2019-03-18T19:15:31.925Z,51.04
2019-03-18T19:18:00.371Z,50.92
2019-03-18T19:20:28.733Z,51.04
2019-03-18T19:22:57.118Z,51.25
2019-03-18T19:25:25.480Z,51.05
2019-03-18T19:27:53.851Z,51.44
2019-03-18T19:30:23.063Z,51.33
2019-03-18T19:32:51.508Z,51.32
2019-03-18T19:35:19.958Z,50.93
2019-03-18T19:37:48.327Z,50.94
2019-03-18T19:40:23.204Z,51.03
2019-03-18T19:42:51.672Z,50.99
2019-03-18T19:45:20.100Z,50.96
2019-03-18T19:47:48.475Z,50.94
2019-03-18T19:50:24.928Z,50.71
2019-03-18T19:52:53.316Z,50.56
2019-03-18T19:55:21.683Z,50.48
2019-03-18T19:57:50.046Z,50.57
2019-03-18T20:00:26.551Z,50.46
2019-03-18T20:02:55.004Z,50.45
2019-03-18T20:05:23.448Z,50.58
2019-03-18T20:07:51.821Z,50.54
2019-03-18T20:10:23.484Z,50.57
2019-03-18T20:12:52.183Z,50.60
2019-03-18T20:15:20.819Z,50.52
2019-03-18T20:17:49.350Z,50.72
2019-03-18T20:20:18.695Z,50.43
2019-03-18T20:22:47.319Z,50.56
2019-03-18T20:25:16.159Z,50.52
2019-03-18T20:27:44.523Z,50.46
2019-03-18T20:30:20.094Z,50.40
2019-03-18T20:32:48.601Z,50.46
2019-03-18T20:35:21.054Z,50.56
2019-03-18T20:37:51.940Z,50.58
2019-03-18T20:40:19.664Z,50.60
2019-03-18T20:42:48.086Z,50.53
2019-03-18T20:45:21.627Z,50.49
2019-03-18T20:47:49.996Z,50.53
2019-03-18T20:50:20.370Z,50.44
2019-03-18T20:52:48.925Z,50.54
2019-03-18T20:55:17.778Z,50.58
2019-03-18T20:57:46.219Z,50.56
2019-03-18T21:00:16.797Z,50.77
2019-03-18T21:02:45.165Z,50.49
2019-03-18T21:05:13.536Z,50.44
2019-03-18T21:07:41.901Z,50.47
2019-03-18T21:10:12.214Z,50.46
2019-03-18T21:12:41.474Z,50.43
2019-03-18T21:15:11.846Z,50.43
2019-03-18T21:17:40.371Z,50.41
2019-03-18T21:20:16.487Z,50.41
2019-03-18T21:22:44.860Z,50.72
2019-03-18T21:25:13.887Z,50.64
2019-03-18T21:27:42.253Z,50.64
2019-03-18T21:30:18.428Z,50.67
2019-03-18T21:32:46.939Z,50.93
2019-03-18T21:35:15.255Z,50.99
2019-03-18T21:37:43.783Z,50.92
2019-03-18T21:40:17.293Z,50.63
2019-03-18T21:42:45.667Z,50.29
2019-03-18T21:45:17.085Z,49.90
2019-03-18T21:47:45.563Z,49.84
2019-03-18T21:50:15.731Z,49.76
2019-03-18T21:52:44.251Z,49.63
2019-03-18T21:55:13.262Z,49.77
2019-03-18T21:57:41.630Z,49.90
2019-03-18T22:00:15.296Z,49.83
2019-03-18T22:02:43.658Z,49.79
2019-03-18T22:05:12.093Z,49.82
2019-03-18T22:07:40.567Z,49.88
2019-03-18T22:10:16.771Z,49.90
2019-03-18T22:12:46.084Z,49.92
2019-03-18T22:15:14.876Z,49.92
2019-03-18T22:17:43.421Z,50.10
2019-03-18T22:20:21.643Z,49.97
2019-03-18T22:22:50.101Z,50.04
2019-03-18T22:25:18.484Z,50.51
2019-03-18T22:27:46.945Z,50.15
2019-03-18T22:30:17.326Z,50.25
2019-03-18T22:32:45.704Z,50.19
2019-03-18T22:35:14.203Z,50.09
2019-03-18T22:37:42.646Z,50.20
2019-03-18T22:40:15.406Z,50.21
2019-03-18T22:42:43.857Z,50.10
2019-03-18T22:45:13.359Z,50.22
2019-03-18T22:47:41.747Z,50.13
2019-03-18T22:50:11.478Z,50.18
2019-03-18T22:52:39.865Z,50.07
2019-03-18T22:55:10.165Z,50.03
2019-03-18T22:57:39.219Z,50.10
2019-03-18T23:00:14.767Z,50.16
2019-03-18T23:02:43.146Z,49.80
2019-03-18T23:05:14.240Z,50.14
2019-03-18T23:07:42.629Z,50.04
2019-03-18T23:10:11.075Z,50.16
2019-03-18T23:12:39.458Z,50.27
2019-03-18T23:15:09.727Z,50.18
2019-03-18T23:17:38.255Z,50.11
2019-03-18T23:20:07.449Z,50.09
2019-03-18T23:22:35.835Z,50.17
2019-03-18T23:25:07.783Z,50.06
2019-03-18T23:27:35.636Z,50.11
2019-03-18T23:30:05.780Z,50.20
2019-03-18T23:32:34.152Z,50.08
2019-03-18T23:35:02.586Z,50.19
2019-03-18T23:37:30.959Z,50.04
2019-03-18T23:39:59.318Z,50.06
2019-03-18T23:42:27.687Z,50.10
2019-03-18T23:44:56.064Z,50.20
2019-03-18T23:47:24.444Z,50.06
2019-03-18T23:49:52.810Z,50.08
2019-03-18T23:52:21.306Z,50.31
2019-03-18T23:54:49.692Z,50.09
2019-03-18T23:57:18.063Z,50.12
2019-03-18T23:59:46.428Z,50.06
